sensor_id;sensor_type;location;lat;lon;timestamp;P1;durP1;ratioP1;P2;durP2;ratioP2
77726;SDS011;68312;53.502;10.030;2023-03-14T00:00:57;4.20;;;1.80;;
77726;SDS011;68312;53.502;10.030;2023-03-14T00:03:23;4.88;;;1.50;;
77726;SDS011;68312;53.502;10.030;2023-03-14T00:05:49;4.65;;;2.13;;
77726;SDS011;68312;53.502;10.030;2023-03-14T00:08:14;10.02;;;2.20;;
77726;SDS011;68312;53.502;10.030;2023-03-14T00:10:40;5.82;;;2.08;;
77726;SDS011;68312;53.502;10.030;2023-03-14T00:13:06;7.07;;;2.17;;
77726;SDS011;68312;53.502;10.030;2023-03-14T00:15:32;5.55;;;1.95;;
77726;SDS011;68312;53.502;10.030;2023-03-14T00:17:59;4.20;;;2.22;;
77726;SDS011;68312;53.502;10.030;2023-03-14T00:20:25;7.47;;;1.92;;
77726;SDS011;68312;53.502;10.030;2023-03-14T00:22:51;5.43;;;2.03;;
77726;SDS011;68312;53.502;10.030;2023-03-14T00:25:16;7.03;;;2.00;;
77726;SDS011;68312;53.502;10.030;2023-03-14T00:27:43;7.47;;;2.22;;
77726;SDS011;68312;53.502;10.030;2023-03-14T00:30:08;6.18;;;2.10;;
77726;SDS011;68312;53.502;10.030;2023-03-14T00:32:35;4.47;;;1.63;;
77726;SDS011;68312;53.502;10.030;2023-03-14T00:35:04;4.15;;;1.77;;
77726;SDS011;68312;53.502;10.030;2023-03-14T00:37:31;6.65;;;2.13;;
77726;SDS011;68312;53.502;10.030;2023-03-14T00:39:56;7.75;;;1.88;;
77726;SDS011;68312;53.502;10.030;2023-03-14T00:42:23;6.38;;;1.70;;
77726;SDS011;68312;53.502;10.030;2023-03-14T00:44:49;3.35;;;1.80;;
77726;SDS011;68312;53.502;10.030;2023-03-14T00:47:14;6.50;;;1.77;;
77726;SDS011;68312;53.502;10.030;2023-03-14T00:49:40;5.57;;;1.90;;
77726;SDS011;68312;53.502;10.030;2023-03-14T00:52:08;6.38;;;2.20;;
77726;SDS011;68312;53.502;10.030;2023-03-14T00:54:34;10.95;;;2.22;;
77726;SDS011;68312;53.502;10.030;2023-03-14T00:57:00;4.07;;;2.03;;
77726;SDS011;68312;53.502;10.030;2023-03-14T00:59:25;5.65;;;2.10;;
77726;SDS011;68312;53.502;10.030;2023-03-14T01:01:51;10.20;;;2.55;;
77726;SDS011;68312;53.502;10.030;2023-03-14T01:04:16;9.95;;;2.50;;
77726;SDS011;68312;53.502;10.030;2023-03-14T01:06:42;5.78;;;2.20;;
77726;SDS011;68312;53.502;10.030;2023-03-14T01:09:08;6.57;;;2.33;;
77726;SDS011;68312;53.502;10.030;2023-03-14T01:11:34;7.18;;;2.45;;
77726;SDS011;68312;53.502;10.030;2023-03-14T01:14:01;5.43;;;2.35;;
77726;SDS011;68312;53.502;10.030;2023-03-14T01:16:29;6.43;;;2.28;;
77726;SDS011;68312;53.502;10.030;2023-03-14T01:19:03;7.07;;;2.20;;
77726;SDS011;68312;53.502;10.030;2023-03-14T01:21:30;3.88;;;2.45;;
77726;SDS011;68312;53.502;10.030;2023-03-14T01:23:59;5.65;;;2.08;;
77726;SDS011;68312;53.502;10.030;2023-03-14T01:26:29;5.05;;;2.05;;
77726;SDS011;68312;53.502;10.030;2023-03-14T01:28:58;6.20;;;2.33;;
77726;SDS011;68312;53.502;10.030;2023-03-14T01:31:25;8.93;;;2.05;;
77726;SDS011;68312;53.502;10.030;2023-03-14T01:33:52;7.22;;;2.75;;
77726;SDS011;68312;53.502;10.030;2023-03-14T01:36:18;8.35;;;2.58;;
77726;SDS011;68312;53.502;10.030;2023-03-14T01:38:44;7.63;;;2.22;;
77726;SDS011;68312;53.502;10.030;2023-03-14T01:41:12;6.88;;;2.25;;
77726;SDS011;68312;53.502;10.030;2023-03-14T01:43:44;7.80;;;2.00;;
77726;SDS011;68312;53.502;10.030;2023-03-14T01:51:59;6.97;;;1.92;;
77726;SDS011;68312;53.502;10.030;2023-03-14T01:54:50;5.18;;;2.17;;
77726;SDS011;68312;53.502;10.030;2023-03-14T01:57:37;5.18;;;2.60;;
77726;SDS011;68312;53.502;10.030;2023-03-14T02:00:11;11.02;;;2.25;;
77726;SDS011;68312;53.502;10.030;2023-03-14T02:02:41;9.43;;;2.25;;
77726;SDS011;68312;53.502;10.030;2023-03-14T02:05:14;5.82;;;2.10;;
77726;SDS011;68312;53.502;10.030;2023-03-14T02:07:51;8.77;;;2.60;;
77726;SDS011;68312;53.502;10.030;2023-03-14T02:10:33;5.43;;;2.22;;
77726;SDS011;68312;53.502;10.030;2023-03-14T02:13:06;5.93;;;2.27;;
77726;SDS011;68312;53.502;10.030;2023-03-14T02:15:32;11.02;;;2.20;;
77726;SDS011;68312;53.502;10.030;2023-03-14T02:17:59;7.15;;;2.75;;
77726;SDS011;68312;53.502;10.030;2023-03-14T02:23:39;5.70;;;2.15;;
77726;SDS011;68312;53.502;10.030;2023-03-14T02:26:32;4.22;;;1.90;;
77726;SDS011;68312;53.502;10.030;2023-03-14T02:29:08;5.53;;;1.92;;
77726;SDS011;68312;53.502;10.030;2023-03-14T02:31:34;11.32;;;2.72;;
77726;SDS011;68312;53.502;10.030;2023-03-14T02:34:00;8.07;;;2.33;;
77726;SDS011;68312;53.502;10.030;2023-03-14T02:36:27;5.32;;;2.05;;
77726;SDS011;68312;53.502;10.030;2023-03-14T02:41:46;10.77;;;2.33;;
77726;SDS011;68312;53.502;10.030;2023-03-14T02:44:14;5.30;;;1.90;;
77726;SDS011;68312;53.502;10.030;2023-03-14T02:46:39;6.30;;;1.98;;
77726;SDS011;68312;53.502;10.030;2023-03-14T02:49:07;4.85;;;1.90;;
77726;SDS011;68312;53.502;10.030;2023-03-14T02:51:38;6.57;;;2.13;;
77726;SDS011;68312;53.502;10.030;2023-03-14T02:54:10;5.65;;;2.15;;
77726;SDS011;68312;53.502;10.030;2023-03-14T02:56:36;5.28;;;2.30;;
77726;SDS011;68312;53.502;10.030;2023-03-14T02:59:05;9.15;;;2.30;;
77726;SDS011;68312;53.502;10.030;2023-03-14T03:01:32;6.68;;;2.58;;
77726;SDS011;68312;53.502;10.030;2023-03-14T03:03:59;6.70;;;2.50;;
77726;SDS011;68312;53.502;10.030;2023-03-14T03:06:25;5.15;;;2.33;;
77726;SDS011;68312;53.502;10.030;2023-03-14T03:08:51;6.30;;;2.30;;
77726;SDS011;68312;53.502;10.030;2023-03-14T03:11:17;11.27;;;2.38;;
77726;SDS011;68312;53.502;10.030;2023-03-14T03:13:43;6.10;;;1.80;;
77726;SDS011;68312;53.502;10.030;2023-03-14T03:16:08;6.47;;;2.30;;
77726;SDS011;68312;53.502;10.030;2023-03-14T03:18:34;8.02;;;2.30;;
77726;SDS011;68312;53.502;10.030;2023-03-14T03:21:00;6.07;;;1.95;;
77726;SDS011;68312;53.502;10.030;2023-03-14T03:23:29;6.30;;;2.30;;
77726;SDS011;68312;53.502;10.030;2023-03-14T03:25:54;6.93;;;1.88;;
77726;SDS011;68312;53.502;10.030;2023-03-14T03:28:20;4.75;;;2.25;;
77726;SDS011;68312;53.502;10.030;2023-03-14T03:30:46;6.53;;;2.00;;
77726;SDS011;68312;53.502;10.030;2023-03-14T03:33:11;5.75;;;2.03;;
77726;SDS011;68312;53.502;10.030;2023-03-14T03:35:47;3.75;;;2.20;;
77726;SDS011;68312;53.502;10.030;2023-03-14T03:38:15;5.60;;;1.80;;
77726;SDS011;68312;53.502;10.030;2023-03-14T03:40:42;7.43;;;1.95;;
77726;SDS011;68312;53.502;10.030;2023-03-14T03:43:08;6.40;;;2.03;;
77726;SDS011;68312;53.502;10.030;2023-03-14T03:45:34;8.63;;;2.08;;
77726;SDS011;68312;53.502;10.030;2023-03-14T03:47:59;6.43;;;2.30;;
77726;SDS011;68312;53.502;10.030;2023-03-14T03:50:28;5.85;;;2.38;;
77726;SDS011;68312;53.502;10.030;2023-03-14T03:52:53;5.50;;;2.00;;
77726;SDS011;68312;53.502;10.030;2023-03-14T03:55:19;11.05;;;2.45;;
77726;SDS011;68312;53.502;10.030;2023-03-14T03:57:44;5.00;;;1.70;;
77726;SDS011;68312;53.502;10.030;2023-03-14T04:00:10;4.70;;;2.25;;
77726;SDS011;68312;53.502;10.030;2023-03-14T04:02:37;5.88;;;2.05;;
77726;SDS011;68312;53.502;10.030;2023-03-14T04:05:03;4.63;;;2.00;;
77726;SDS011;68312;53.502;10.030;2023-03-14T04:07:31;10.07;;;2.08;;
77726;SDS011;68312;53.502;10.030;2023-03-14T04:09:57;5.65;;;1.80;;
77726;SDS011;68312;53.502;10.030;2023-03-14T04:12:23;5.30;;;1.95;;
77726;SDS011;68312;53.502;10.030;2023-03-14T04:14:48;3.72;;;2.05;;
77726;SDS011;68312;53.502;10.030;2023-03-14T04:17:14;6.90;;;2.45;;
77726;SDS011;68312;53.502;10.030;2023-03-14T04:19:40;4.63;;;2.05;;
77726;SDS011;68312;53.502;10.030;2023-03-14T04:22:05;8.02;;;2.42;;
77726;SDS011;68312;53.502;10.030;2023-03-14T04:24:31;4.70;;;1.98;;
77726;SDS011;68312;53.502;10.030;2023-03-14T04:26:56;6.05;;;2.42;;
77726;SDS011;68312;53.502;10.030;2023-03-14T04:29:22;9.80;;;2.47;;
77726;SDS011;68312;53.502;10.030;2023-03-14T04:31:47;11.57;;;2.85;;
77726;SDS011;68312;53.502;10.030;2023-03-14T04:34:13;6.57;;;2.22;;
77726;SDS011;68312;53.502;10.030;2023-03-14T04:36:38;7.45;;;2.30;;
77726;SDS011;68312;53.502;10.030;2023-03-14T04:39:04;4.90;;;2.08;;
77726;SDS011;68312;53.502;10.030;2023-03-14T04:41:29;5.50;;;2.42;;
77726;SDS011;68312;53.502;10.030;2023-03-14T04:43:55;7.07;;;2.25;;
77726;SDS011;68312;53.502;10.030;2023-03-14T04:46:21;7.72;;;2.50;;
77726;SDS011;68312;53.502;10.030;2023-03-14T04:48:46;5.10;;;2.38;;
77726;SDS011;68312;53.502;10.030;2023-03-14T04:51:12;6.20;;;2.45;;
77726;SDS011;68312;53.502;10.030;2023-03-14T04:53:37;7.20;;;2.85;;
77726;SDS011;68312;53.502;10.030;2023-03-14T04:56:03;9.13;;;2.60;;
77726;SDS011;68312;53.502;10.030;2023-03-14T04:58:29;8.65;;;2.60;;
77726;SDS011;68312;53.502;10.030;2023-03-14T05:00:55;6.22;;;2.30;;
77726;SDS011;68312;53.502;10.030;2023-03-14T05:03:20;4.45;;;2.20;;
77726;SDS011;68312;53.502;10.030;2023-03-14T05:05:46;5.40;;;2.38;;
77726;SDS011;68312;53.502;10.030;2023-03-14T05:08:12;4.03;;;2.15;;
77726;SDS011;68312;53.502;10.030;2023-03-14T05:10:37;9.30;;;2.70;;
77726;SDS011;68312;53.502;10.030;2023-03-14T05:13:03;7.45;;;1.98;;
77726;SDS011;68312;53.502;10.030;2023-03-14T05:15:29;6.20;;;2.20;;
77726;SDS011;68312;53.502;10.030;2023-03-14T05:17:54;7.57;;;2.67;;
77726;SDS011;68312;53.502;10.030;2023-03-14T05:20:20;4.97;;;2.35;;
77726;SDS011;68312;53.502;10.030;2023-03-14T05:22:46;6.18;;;2.45;;
77726;SDS011;68312;53.502;10.030;2023-03-14T05:25:12;5.72;;;2.42;;
77726;SDS011;68312;53.502;10.030;2023-03-14T05:27:38;8.05;;;2.72;;
77726;SDS011;68312;53.502;10.030;2023-03-14T05:30:04;5.85;;;2.63;;
77726;SDS011;68312;53.502;10.030;2023-03-14T05:32:31;6.47;;;2.40;;
77726;SDS011;68312;53.502;10.030;2023-03-14T05:34:57;5.10;;;2.42;;
77726;SDS011;68312;53.502;10.030;2023-03-14T05:37:27;4.05;;;2.10;;
77726;SDS011;68312;53.502;10.030;2023-03-14T05:39:53;4.22;;;2.22;;
77726;SDS011;68312;53.502;10.030;2023-03-14T05:42:19;5.45;;;2.60;;
77726;SDS011;68312;53.502;10.030;2023-03-14T05:44:44;6.05;;;2.35;;
77726;SDS011;68312;53.502;10.030;2023-03-14T05:47:10;9.02;;;2.85;;
77726;SDS011;68312;53.502;10.030;2023-03-14T05:49:36;7.63;;;2.28;;
77726;SDS011;68312;53.502;10.030;2023-03-14T05:52:01;7.32;;;2.85;;
77726;SDS011;68312;53.502;10.030;2023-03-14T05:54:27;9.18;;;2.65;;
77726;SDS011;68312;53.502;10.030;2023-03-14T05:56:52;5.68;;;2.25;;
77726;SDS011;68312;53.502;10.030;2023-03-14T05:59:18;6.25;;;2.03;;
77726;SDS011;68312;53.502;10.030;2023-03-14T06:01:43;8.35;;;2.47;;
77726;SDS011;68312;53.502;10.030;2023-03-14T06:04:09;5.55;;;2.55;;
77726;SDS011;68312;53.502;10.030;2023-03-14T06:06:34;4.25;;;2.42;;
77726;SDS011;68312;53.502;10.030;2023-03-14T06:09:00;5.38;;;2.45;;
77726;SDS011;68312;53.502;10.030;2023-03-14T06:11:26;6.05;;;2.50;;
77726;SDS011;68312;53.502;10.030;2023-03-14T06:13:52;5.15;;;2.50;;
77726;SDS011;68312;53.502;10.030;2023-03-14T06:16:17;5.07;;;2.42;;
77726;SDS011;68312;53.502;10.030;2023-03-14T06:18:43;7.43;;;2.80;;
77726;SDS011;68312;53.502;10.030;2023-03-14T06:21:11;7.55;;;2.40;;
77726;SDS011;68312;53.502;10.030;2023-03-14T06:23:37;5.68;;;2.60;;
77726;SDS011;68312;53.502;10.030;2023-03-14T06:26:03;6.85;;;2.35;;
77726;SDS011;68312;53.502;10.030;2023-03-14T06:28:30;5.30;;;2.33;;
77726;SDS011;68312;53.502;10.030;2023-03-14T06:30:55;6.45;;;1.77;;
77726;SDS011;68312;53.502;10.030;2023-03-14T06:33:21;4.07;;;1.80;;
77726;SDS011;68312;53.502;10.030;2023-03-14T06:35:46;3.80;;;1.75;;
77726;SDS011;68312;53.502;10.030;2023-03-14T06:38:12;5.28;;;1.67;;
77726;SDS011;68312;53.502;10.030;2023-03-14T06:40:37;4.05;;;1.67;;
77726;SDS011;68312;53.502;10.030;2023-03-14T06:43:03;6.05;;;1.80;;
77726;SDS011;68312;53.502;10.030;2023-03-14T06:45:28;5.40;;;1.85;;
77726;SDS011;68312;53.502;10.030;2023-03-14T06:47:54;9.30;;;1.63;;
77726;SDS011;68312;53.502;10.030;2023-03-14T06:50:19;6.43;;;1.50;;
77726;SDS011;68312;53.502;10.030;2023-03-14T06:52:47;5.47;;;1.77;;
77726;SDS011;68312;53.502;10.030;2023-03-14T06:55:13;5.18;;;1.88;;
77726;SDS011;68312;53.502;10.030;2023-03-14T06:57:40;4.82;;;1.33;;
77726;SDS011;68312;53.502;10.030;2023-03-14T07:00:06;6.72;;;1.55;;
77726;SDS011;68312;53.502;10.030;2023-03-14T07:02:33;2.45;;;1.17;;
77726;SDS011;68312;53.502;10.030;2023-03-14T07:04:59;4.72;;;1.45;;
77726;SDS011;68312;53.502;10.030;2023-03-14T07:07:25;3.58;;;1.20;;
77726;SDS011;68312;53.502;10.030;2023-03-14T07:09:52;7.30;;;1.75;;
77726;SDS011;68312;53.502;10.030;2023-03-14T07:12:18;5.35;;;1.90;;
77726;SDS011;68312;53.502;10.030;2023-03-14T07:14:44;5.85;;;1.70;;
77726;SDS011;68312;53.502;10.030;2023-03-14T07:17:09;2.92;;;1.30;;
77726;SDS011;68312;53.502;10.030;2023-03-14T07:19:35;2.53;;;1.35;;
77726;SDS011;68312;53.502;10.030;2023-03-14T07:22:01;4.78;;;1.55;;
77726;SDS011;68312;53.502;10.030;2023-03-14T07:24:26;4.72;;;2.10;;
77726;SDS011;68312;53.502;10.030;2023-03-14T07:26:52;5.35;;;2.00;;
77726;SDS011;68312;53.502;10.030;2023-03-14T07:29:17;6.40;;;2.90;;
77726;SDS011;68312;53.502;10.030;2023-03-14T07:31:43;2.15;;;1.30;;
77726;SDS011;68312;53.502;10.030;2023-03-14T07:34:08;5.22;;;1.63;;
77726;SDS011;68312;53.502;10.030;2023-03-14T07:36:34;1.75;;;1.00;;
77726;SDS011;68312;53.502;10.030;2023-03-14T07:39:00;2.17;;;0.95;;
77726;SDS011;68312;53.502;10.030;2023-03-14T07:41:25;3.97;;;1.05;;
77726;SDS011;68312;53.502;10.030;2023-03-14T07:43:51;5.25;;;1.20;;
77726;SDS011;68312;53.502;10.030;2023-03-14T07:46:17;2.53;;;0.88;;
77726;SDS011;68312;53.502;10.030;2023-03-14T07:48:45;2.85;;;0.93;;
77726;SDS011;68312;53.502;10.030;2023-03-14T07:51:10;3.10;;;1.05;;
77726;SDS011;68312;53.502;10.030;2023-03-14T07:53:36;3.40;;;0.95;;
77726;SDS011;68312;53.502;10.030;2023-03-14T07:56:01;4.28;;;1.00;;
77726;SDS011;68312;53.502;10.030;2023-03-14T07:58:27;4.30;;;1.20;;
77726;SDS011;68312;53.502;10.030;2023-03-14T08:00:52;3.38;;;0.80;;
77726;SDS011;68312;53.502;10.030;2023-03-14T08:03:18;2.95;;;1.17;;
77726;SDS011;68312;53.502;10.030;2023-03-14T08:05:45;3.17;;;1.00;;
77726;SDS011;68312;53.502;10.030;2023-03-14T08:08:15;3.55;;;0.93;;
77726;SDS011;68312;53.502;10.030;2023-03-14T08:10:40;4.05;;;1.30;;
77726;SDS011;68312;53.502;10.030;2023-03-14T08:13:06;3.75;;;1.42;;
77726;SDS011;68312;53.502;10.030;2023-03-14T08:15:31;3.53;;;1.52;;
77726;SDS011;68312;53.502;10.030;2023-03-14T08:17:57;2.80;;;1.58;;
77726;SDS011;68312;53.502;10.030;2023-03-14T08:20:24;3.67;;;1.85;;
77726;SDS011;68312;53.502;10.030;2023-03-14T08:23:02;4.32;;;1.63;;
77726;SDS011;68312;53.502;10.030;2023-03-14T08:25:34;7.93;;;1.98;;
77726;SDS011;68312;53.502;10.030;2023-03-14T08:27:59;5.93;;;1.60;;
77726;SDS011;68312;53.502;10.030;2023-03-14T08:30:25;3.83;;;1.50;;
77726;SDS011;68312;53.502;10.030;2023-03-14T08:32:51;5.90;;;1.52;;
77726;SDS011;68312;53.502;10.030;2023-03-14T08:35:16;5.30;;;1.77;;
77726;SDS011;68312;53.502;10.030;2023-03-14T08:37:42;6.38;;;2.00;;
77726;SDS011;68312;53.502;10.030;2023-03-14T08:40:08;3.25;;;1.42;;
77726;SDS011;68312;53.502;10.030;2023-03-14T08:42:39;5.35;;;1.80;;
77726;SDS011;68312;53.502;10.030;2023-03-14T08:45:05;4.95;;;2.40;;
77726;SDS011;68312;53.502;10.030;2023-03-14T08:47:33;5.47;;;1.90;;
77726;SDS011;68312;53.502;10.030;2023-03-14T08:49:59;5.53;;;2.28;;
77726;SDS011;68312;53.502;10.030;2023-03-14T08:52:24;5.97;;;2.63;;
77726;SDS011;68312;53.502;10.030;2023-03-14T08:54:50;6.60;;;2.20;;
77726;SDS011;68312;53.502;10.030;2023-03-14T08:57:15;6.32;;;2.53;;
77726;SDS011;68312;53.502;10.030;2023-03-14T08:59:41;4.78;;;2.50;;
77726;SDS011;68312;53.502;10.030;2023-03-14T09:02:09;5.85;;;2.50;;
77726;SDS011;68312;53.502;10.030;2023-03-14T09:04:36;5.38;;;2.75;;
77726;SDS011;68312;53.502;10.030;2023-03-14T09:07:02;5.45;;;3.03;;
77726;SDS011;68312;53.502;10.030;2023-03-14T09:09:28;7.53;;;2.55;;
77726;SDS011;68312;53.502;10.030;2023-03-14T09:11:55;3.97;;;2.00;;
77726;SDS011;68312;53.502;10.030;2023-03-14T09:14:21;6.53;;;2.33;;
77726;SDS011;68312;53.502;10.030;2023-03-14T09:16:48;7.18;;;2.65;;
77726;SDS011;68312;53.502;10.030;2023-03-14T09:19:14;4.80;;;2.30;;
77726;SDS011;68312;53.502;10.030;2023-03-14T09:21:39;6.82;;;2.85;;
77726;SDS011;68312;53.502;10.030;2023-03-14T09:24:11;7.45;;;2.70;;
77726;SDS011;68312;53.502;10.030;2023-03-14T09:26:37;10.43;;;3.30;;
77726;SDS011;68312;53.502;10.030;2023-03-14T09:29:02;8.18;;;3.17;;
77726;SDS011;68312;53.502;10.030;2023-03-14T09:31:28;6.22;;;2.97;;
77726;SDS011;68312;53.502;10.030;2023-03-14T09:33:54;8.43;;;3.05;;
77726;SDS011;68312;53.502;10.030;2023-03-14T09:36:20;9.18;;;3.10;;
77726;SDS011;68312;53.502;10.030;2023-03-14T09:38:46;6.00;;;2.92;;
77726;SDS011;68312;53.502;10.030;2023-03-14T09:41:55;5.05;;;2.75;;
77726;SDS011;68312;53.502;10.030;2023-03-14T09:44:30;5.53;;;3.70;;
77726;SDS011;68312;53.502;10.030;2023-03-14T09:47:07;8.30;;;3.45;;
77726;SDS011;68312;53.502;10.030;2023-03-14T09:49:40;9.77;;;3.55;;
77726;SDS011;68312;53.502;10.030;2023-03-14T09:52:14;8.88;;;5.00;;
77726;SDS011;68312;53.502;10.030;2023-03-14T09:55:06;8.30;;;3.10;;
77726;SDS011;68312;53.502;10.030;2023-03-14T09:57:41;11.43;;;3.88;;
77726;SDS011;68312;53.502;10.030;2023-03-14T10:00:22;8.75;;;3.40;;
77726;SDS011;68312;53.502;10.030;2023-03-14T10:02:57;8.95;;;3.30;;
77726;SDS011;68312;53.502;10.030;2023-03-14T10:05:54;3.03;;;0.80;;
77726;SDS011;68312;53.502;10.030;2023-03-14T10:08:21;1.83;;;0.73;;
77726;SDS011;68312;53.502;10.030;2023-03-14T10:10:46;1.15;;;0.50;;
77726;SDS011;68312;53.502;10.030;2023-03-14T10:15:55;1.70;;;0.68;;
77726;SDS011;68312;53.502;10.030;2023-03-14T10:18:31;1.65;;;0.68;;
77726;SDS011;68312;53.502;10.030;2023-03-14T10:21:02;1.80;;;1.00;;
77726;SDS011;68312;53.502;10.030;2023-03-14T10:23:46;3.17;;;1.17;;
77726;SDS011;68312;53.502;10.030;2023-03-14T10:26:13;2.60;;;1.15;;
77726;SDS011;68312;53.502;10.030;2023-03-14T10:28:45;4.55;;;1.17;;
77726;SDS011;68312;53.502;10.030;2023-03-14T10:31:17;2.78;;;0.90;;
77726;SDS011;68312;53.502;10.030;2023-03-14T10:33:56;3.90;;;1.00;;
77726;SDS011;68312;53.502;10.030;2023-03-14T10:36:32;3.88;;;1.10;;
77726;SDS011;68312;53.502;10.030;2023-03-14T10:39:21;2.67;;;0.98;;
77726;SDS011;68312;53.502;10.030;2023-03-14T10:42:23;1.83;;;1.10;;
77726;SDS011;68312;53.502;10.030;2023-03-14T10:45:00;2.58;;;0.73;;
77726;SDS011;68312;53.502;10.030;2023-03-14T10:47:32;0.97;;;0.50;;
77726;SDS011;68312;53.502;10.030;2023-03-14T10:50:19;3.97;;;0.40;;
77726;SDS011;68312;53.502;10.030;2023-03-14T10:52:56;1.55;;;0.60;;
77726;SDS011;68312;53.502;10.030;2023-03-14T10:55:41;1.30;;;0.50;;
77726;SDS011;68312;53.502;10.030;2023-03-14T10:58:20;1.10;;;0.40;;
77726;SDS011;68312;53.502;10.030;2023-03-14T11:00:57;1.00;;;0.32;;
77726;SDS011;68312;53.502;10.030;2023-03-14T11:07:30;0.50;;;0.35;;
77726;SDS011;68312;53.502;10.030;2023-03-14T11:21:59;0.52;;;0.30;;
77726;SDS011;68312;53.502;10.030;2023-03-14T11:25:34;1.17;;;0.65;;
77726;SDS011;68312;53.502;10.030;2023-03-14T11:31:48;1.85;;;0.40;;
77726;SDS011;68312;53.502;10.030;2023-03-14T11:33:57;2.65;;;0.63;;
77726;SDS011;68312;53.502;10.030;2023-03-14T11:36:52;2.72;;;0.43;;
77726;SDS011;68312;53.502;10.030;2023-03-14T11:39:35;0.60;;;0.30;;
77726;SDS011;68312;53.502;10.030;2023-03-14T11:42:14;1.40;;;0.38;;
77726;SDS011;68312;53.502;10.030;2023-03-14T11:44:44;2.55;;;0.55;;
77726;SDS011;68312;53.502;10.030;2023-03-14T11:50:15;1.88;;;0.35;;
77726;SDS011;68312;53.502;10.030;2023-03-14T11:53:05;4.22;;;0.60;;
77726;SDS011;68312;53.502;10.030;2023-03-14T11:55:43;1.52;;;0.50;;
77726;SDS011;68312;53.502;10.030;2023-03-14T11:58:15;4.75;;;0.82;;
77726;SDS011;68312;53.502;10.030;2023-03-14T12:00:47;1.08;;;0.60;;
77726;SDS011;68312;53.502;10.030;2023-03-14T12:03:26;3.33;;;0.70;;
77726;SDS011;68312;53.502;10.030;2023-03-14T12:06:22;3.13;;;0.57;;
77726;SDS011;68312;53.502;10.030;2023-03-14T12:09:05;2.38;;;0.85;;
77726;SDS011;68312;53.502;10.030;2023-03-14T12:16:56;5.63;;;0.75;;
77726;SDS011;68312;53.502;10.030;2023-03-14T12:19:43;3.78;;;0.60;;
77726;SDS011;68312;53.502;10.030;2023-03-14T12:25:03;6.10;;;0.90;;
77726;SDS011;68312;53.502;10.030;2023-03-14T12:27:44;5.05;;;0.90;;
77726;SDS011;68312;53.502;10.030;2023-03-14T12:30:28;7.15;;;1.08;;
77726;SDS011;68312;53.502;10.030;2023-03-14T12:35:41;3.28;;;1.02;;
77726;SDS011;68312;53.502;10.030;2023-03-14T12:44:24;2.47;;;0.68;;
77726;SDS011;68312;53.502;10.030;2023-03-14T12:50:07;2.05;;;0.82;;
77726;SDS011;68312;53.502;10.030;2023-03-14T12:55:57;6.07;;;1.65;;
77726;SDS011;68312;53.502;10.030;2023-03-14T12:58:58;3.90;;;0.80;;
77726;SDS011;68312;53.502;10.030;2023-03-14T13:02:00;5.90;;;1.40;;
77726;SDS011;68312;53.502;10.030;2023-03-14T13:04:46;12.30;;;1.67;;
77726;SDS011;68312;53.502;10.030;2023-03-14T13:07:31;11.00;;;2.03;;
77726;SDS011;68312;53.502;10.030;2023-03-14T13:13:03;7.03;;;1.23;;
77726;SDS011;68312;53.502;10.030;2023-03-14T13:15:45;7.05;;;1.70;;
77726;SDS011;68312;53.502;10.030;2023-03-14T13:18:17;6.60;;;1.48;;
77726;SDS011;68312;53.502;10.030;2023-03-14T13:21:05;8.82;;;1.65;;
77726;SDS011;68312;53.502;10.030;2023-03-14T13:23:58;10.75;;;2.13;;
77726;SDS011;68312;53.502;10.030;2023-03-14T13:26:32;4.07;;;1.50;;
77726;SDS011;68312;53.502;10.030;2023-03-14T13:29:16;8.20;;;1.50;;
77726;SDS011;68312;53.502;10.030;2023-03-14T13:31:53;13.63;;;2.05;;
77726;SDS011;68312;53.502;10.030;2023-03-14T13:34:30;9.23;;;1.75;;
77726;SDS011;68312;53.502;10.030;2023-03-14T13:36:59;5.72;;;1.27;;
77726;SDS011;68312;53.502;10.030;2023-03-14T13:39:26;5.82;;;1.15;;
77726;SDS011;68312;53.502;10.030;2023-03-14T13:41:55;4.80;;;1.10;;
77726;SDS011;68312;53.502;10.030;2023-03-14T13:44:32;5.80;;;0.85;;
77726;SDS011;68312;53.502;10.030;2023-03-14T13:47:04;3.90;;;0.90;;
77726;SDS011;68312;53.502;10.030;2023-03-14T13:49:39;7.30;;;1.23;;
77726;SDS011;68312;53.502;10.030;2023-03-14T13:52:20;6.97;;;1.35;;
77726;SDS011;68312;53.502;10.030;2023-03-14T13:55:02;3.38;;;1.20;;
77726;SDS011;68312;53.502;10.030;2023-03-14T14:00:23;2.75;;;0.77;;
77726;SDS011;68312;53.502;10.030;2023-03-14T14:02:56;7.60;;;1.30;;
77726;SDS011;68312;53.502;10.030;2023-03-14T14:05:29;4.93;;;1.08;;
77726;SDS011;68312;53.502;10.030;2023-03-14T14:07:56;4.05;;;1.00;;
77726;SDS011;68312;53.502;10.030;2023-03-14T14:10:22;4.43;;;1.60;;
77726;SDS011;68312;53.502;10.030;2023-03-14T14:13:08;4.32;;;0.90;;
77726;SDS011;68312;53.502;10.030;2023-03-14T14:15:45;4.93;;;1.02;;
77726;SDS011;68312;53.502;10.030;2023-03-14T14:18:18;8.37;;;1.40;;
77726;SDS011;68312;53.502;10.030;2023-03-14T14:23:20;6.80;;;0.95;;
77726;SDS011;68312;53.502;10.030;2023-03-14T14:25:54;4.47;;;1.30;;
77726;SDS011;68312;53.502;10.030;2023-03-14T14:28:27;7.97;;;1.95;;
77726;SDS011;68312;53.502;10.030;2023-03-14T14:33:44;1.17;;;0.55;;
77726;SDS011;68312;53.502;10.030;2023-03-14T14:36:23;4.18;;;1.15;;
77726;SDS011;68312;53.502;10.030;2023-03-14T14:39:18;2.03;;;0.70;;
77726;SDS011;68312;53.502;10.030;2023-03-14T14:41:50;5.57;;;0.88;;
77726;SDS011;68312;53.502;10.030;2023-03-14T14:44:18;2.28;;;0.73;;
77726;SDS011;68312;53.502;10.030;2023-03-14T14:46:57;5.20;;;0.90;;
77726;SDS011;68312;53.502;10.030;2023-03-14T14:49:27;7.85;;;1.20;;
77726;SDS011;68312;53.502;10.030;2023-03-14T14:52:01;2.45;;;0.70;;
77726;SDS011;68312;53.502;10.030;2023-03-14T14:54:38;5.28;;;1.00;;
77726;SDS011;68312;53.502;10.030;2023-03-14T14:57:24;6.35;;;1.27;;
77726;SDS011;68312;53.502;10.030;2023-03-14T15:00:17;3.10;;;1.80;;
77726;SDS011;68312;53.502;10.030;2023-03-14T15:02:51;3.63;;;0.75;;
77726;SDS011;68312;53.502;10.030;2023-03-14T15:05:24;2.30;;;1.08;;
77726;SDS011;68312;53.502;10.030;2023-03-14T15:07:55;4.13;;;1.67;;
77726;SDS011;68312;53.502;10.030;2023-03-14T15:10:23;3.75;;;1.05;;
77726;SDS011;68312;53.502;10.030;2023-03-14T15:12:50;4.25;;;1.02;;
77726;SDS011;68312;53.502;10.030;2023-03-14T15:15:16;3.58;;;1.00;;
77726;SDS011;68312;53.502;10.030;2023-03-14T15:17:43;6.13;;;0.85;;
77726;SDS011;68312;53.502;10.030;2023-03-14T15:20:10;5.35;;;0.85;;
77726;SDS011;68312;53.502;10.030;2023-03-14T15:22:45;8.88;;;1.10;;
77726;SDS011;68312;53.502;10.030;2023-03-14T15:25:20;4.15;;;1.05;;
77726;SDS011;68312;53.502;10.030;2023-03-14T15:27:46;6.25;;;1.15;;
77726;SDS011;68312;53.502;10.030;2023-03-14T15:30:12;8.25;;;0.90;;
77726;SDS011;68312;53.502;10.030;2023-03-14T15:32:42;2.35;;;0.60;;
77726;SDS011;68312;53.502;10.030;2023-03-14T15:35:08;6.97;;;1.10;;
77726;SDS011;68312;53.502;10.030;2023-03-14T15:37:34;5.15;;;1.10;;
77726;SDS011;68312;53.502;10.030;2023-03-14T15:40:00;7.32;;;1.10;;
77726;SDS011;68312;53.502;10.030;2023-03-14T15:42:32;11.93;;;1.67;;
77726;SDS011;68312;53.502;10.030;2023-03-14T15:44:58;8.32;;;1.05;;
77726;SDS011;68312;53.502;10.030;2023-03-14T15:47:23;4.40;;;0.90;;
77726;SDS011;68312;53.502;10.030;2023-03-14T15:49:49;5.70;;;1.13;;
77726;SDS011;68312;53.502;10.030;2023-03-14T15:52:14;8.98;;;1.30;;
77726;SDS011;68312;53.502;10.030;2023-03-14T15:54:40;10.32;;;1.10;;
77726;SDS011;68312;53.502;10.030;2023-03-14T15:57:05;7.85;;;1.80;;
77726;SDS011;68312;53.502;10.030;2023-03-14T15:59:31;8.35;;;1.17;;
77726;SDS011;68312;53.502;10.030;2023-03-14T16:01:57;3.72;;;0.73;;